Time;durP1;ratioP1;P1;durP2;ratioP2;P2;SDS_P1;SDS_P2;PMS_P1;PMS_P2;Temp;Humidity;BMP_temperature;BMP_pressure;BME280_temperature;BME280_humidity;BME280_pressure;Samples;Min_cycle;Max_cycle;Signal;HPM_P1;HPM_P2
2022/01/13 00:01:34;;;;;;;;;;;1.50;99.90;;;;;;6212617;23;20027;-72
2022/01/13 00:04:00;;;;;;;;;;;1.50;99.90;;;;;;6213869;23;19903;-72
2022/01/13 00:06:25;;;;;;;;;;;1.50;99.90;;;;;;6213888;23;19907;-72
2022/01/13 00:08:51;;;;;;;;;;;1.50;99.90;;;;;;6213548;23;19915;-72
2022/01/13 00:11:17;;;;;;;;;;;1.40;99.90;;;;;;6213837;23;19907;-72
2022/01/13 00:13:52;;;;;;;;;;;1.30;99.90;;;;;;6214189;23;19900;-73
2022/01/13 00:19:56;;;;;;;;;;;1.20;99.90;;;;;;6216217;23;19907;-72
2022/01/13 00:21:58;;;;;;;;;;;1.30;99.90;;;;;;6199348;23;19967;-73
2022/01/13 00:24:24;;;;;;;;;;;1.20;99.90;;;;;;6216213;23;19907;-72
2022/01/13 00:26:49;;;;;;;;;;;1.20;99.90;;;;;;6215914;23;19908;-72
2022/01/13 00:29:21;;;;;;;;;;;1.20;99.90;;;;;;6215798;23;19900;-72
2022/01/13 00:31:46;;;;;;;;;;;1.20;99.90;;;;;;6215848;23;19950;-72
2022/01/13 00:34:12;;;;;;;;;;;1.20;99.90;;;;;;6214852;23;20216;-72
2022/01/13 00:36:38;;;;;;;;;;;1.20;99.90;;;;;;6216338;23;19994;-72
2022/01/13 00:39:05;;;;;;;;;;;1.10;99.90;;;;;;6215004;23;19911;-71
2022/01/13 00:41:31;;;;;;;;;;;1.10;99.90;;;;;;6214627;23;20317;-73
2022/01/13 00:43:57;;;;;;;;;;;1.20;99.90;;;;;;6216381;23;19910;-72
2022/01/13 00:46:26;;;;;;;;;;;1.20;99.90;;;;;;6213375;23;20280;-71
2022/01/13 00:48:52;;;;;;;;;;;1.20;99.90;;;;;;6216766;23;19931;-71
2022/01/13 00:51:18;;;;;;;;;;;1.20;99.90;;;;;;6215861;23;19900;-72
2022/01/13 00:53:44;;;;;;;;;;;1.20;99.90;;;;;;6215058;23;20228;-72
2022/01/13 00:56:10;;;;;;;;;;;1.30;99.90;;;;;;6216361;23;19899;-71
2022/01/13 00:58:36;;;;;;;;;;;1.30;99.90;;;;;;6215710;23;19900;-73
2022/01/13 01:01:03;;;;;;;;;;;1.20;99.90;;;;;;6212825;23;19948;-71
2022/01/13 01:03:28;;;;;;;;;;;1.20;99.90;;;;;;6220748;23;19934;-72
2022/01/13 01:05:54;;;;;;;;;;;1.20;99.90;;;;;;6220236;23;19900;-72
2022/01/13 01:08:20;;;;;;;;;;;1.20;99.90;;;;;;6219489;23;19908;-71
2022/01/13 01:10:48;;;;;;;;;;;1.10;99.90;;;;;;6220440;23;19961;-71
2022/01/13 01:13:17;;;;;;;;;;;1.10;99.90;;;;;;6219533;23;19900;-72
2022/01/13 01:15:47;;;;;;;;;;;1.10;99.90;;;;;;6220645;23;19900;-71
2022/01/13 01:21:17;;;;;;;;;;;1.20;99.90;;;;;;6218185;23;19930;-71
2022/01/13 01:23:57;;;;;;;;;;;1.20;99.90;;;;;;6215662;23;19991;-72
2022/01/13 01:26:31;;;;;;;;;;;1.10;99.90;;;;;;6214522;23;19907;-72
2022/01/13 01:31:47;;;;;;;;;;;1.00;99.90;;;;;;6216458;23;20085;-71
2022/01/13 01:36:55;;;;;;;;;;;0.90;99.90;;;;;;6216177;23;20275;-72
2022/01/13 01:39:21;;;;;;;;;;;0.90;99.90;;;;;;6214048;23;19912;-72
2022/01/13 01:41:48;;;;;;;;;;;0.90;99.90;;;;;;6215552;23;20324;-72
2022/01/13 01:44:18;;;;;;;;;;;0.90;99.90;;;;;;6215465;23;19926;-72
2022/01/13 01:46:46;;;;;;;;;;;0.80;99.90;;;;;;6215125;23;19912;-72
2022/01/13 01:49:17;;;;;;;;;;;0.80;99.90;;;;;;6216159;23;19907;-71
2022/01/13 01:51:53;;;;;;;;;;;0.70;99.90;;;;;;6219710;23;19956;-72
2022/01/13 01:54:19;;;;;;;;;;;0.70;99.90;;;;;;6220906;23;19935;-72
2022/01/13 01:56:45;;;;;;;;;;;0.80;99.90;;;;;;6222122;23;19942;-73
2022/01/13 01:59:14;;;;;;;;;;;0.70;99.90;;;;;;6222353;23;20308;-72
2022/01/13 02:01:40;;;;;;;;;;;0.70;99.90;;;;;;6216711;23;19907;-73
2022/01/13 02:04:06;;;;;;;;;;;0.60;99.90;;;;;;6218277;23;19900;-72
2022/01/13 02:06:32;;;;;;;;;;;0.60;99.90;;;;;;6216480;23;19967;-72
2022/01/13 02:08:57;;;;;;;;;;;0.60;99.90;;;;;;6215090;23;19900;-72
2022/01/13 02:11:27;;;;;;;;;;;0.50;99.90;;;;;;6215353;23;19904;-72
2022/01/13 02:13:55;;;;;;;;;;;0.40;99.90;;;;;;6214265;23;19907;-72
2022/01/13 02:18:56;;;;;;;;;;;0.40;99.90;;;;;;6216387;23;20301;-71
2022/01/13 02:21:24;;;;;;;;;;;0.40;99.90;;;;;;6212006;23;20333;-72
2022/01/13 02:23:49;;;;;;;;;;;0.50;99.90;;;;;;6215559;23;20278;-71
2022/01/13 02:26:15;;;;;;;;;;;0.60;99.90;;;;;;6214192;23;19979;-72
2022/01/13 02:28:41;;;;;;;;;;;0.70;99.90;;;;;;6214860;23;20233;-72
2022/01/13 02:31:06;;;;;;;;;;;0.60;99.90;;;;;;6215070;23;19927;-71
2022/01/13 02:33:34;;;;;;;;;;;0.70;99.90;;;;;;6212668;23;19958;-72
2022/01/13 02:35:59;;;;;;;;;;;0.70;99.90;;;;;;6215355;23;20384;-72
2022/01/13 02:38:25;;;;;;;;;;;0.60;99.90;;;;;;6214845;23;20155;-72
2022/01/13 02:40:52;;;;;;;;;;;0.70;99.90;;;;;;6211337;23;19931;-72
2022/01/13 02:43:17;;;;;;;;;;;0.70;99.90;;;;;;6214202;23;19904;-72
2022/01/13 02:46:02;;;;;;;;;;;0.50;99.90;;;;;;6214592;23;19899;-72
2022/01/13 02:48:30;;;;;;;;;;;0.40;99.90;;;;;;6213976;23;19947;-72
2022/01/13 02:50:59;;;;;;;;;;;0.40;99.90;;;;;;6214327;23;19900;-71
2022/01/13 02:53:25;;;;;;;;;;;0.50;99.90;;;;;;6213419;23;19900;-72
2022/01/13 02:55:54;;;;;;;;;;;0.50;99.90;;;;;;6214576;23;19911;-72
2022/01/13 02:58:21;;;;;;;;;;;0.60;99.90;;;;;;6214763;23;20201;-71
2022/01/13 03:00:46;;;;;;;;;;;0.70;99.90;;;;;;6211497;23;19907;-72
2022/01/13 03:03:12;;;;;;;;;;;0.80;99.90;;;;;;6213879;23;19987;-72
2022/01/13 03:05:39;;;;;;;;;;;0.70;99.90;;;;;;6213963;23;19900;-72
2022/01/13 03:08:06;;;;;;;;;;;0.50;99.90;;;;;;6212801;23;19907;-73
2022/01/13 03:10:32;;;;;;;;;;;0.60;99.90;;;;;;6213394;23;19900;-70
2022/01/13 03:12:59;;;;;;;;;;;0.60;99.90;;;;;;6211117;23;19907;-71
2022/01/13 03:15:24;;;;;;;;;;;0.70;99.90;;;;;;6214247;23;19900;-72
2022/01/13 03:17:50;;;;;;;;;;;0.60;99.90;;;;;;6213883;23;19903;-71
2022/01/13 03:20:16;;;;;;;;;;;0.50;99.90;;;;;;6212516;23;19900;-72
2022/01/13 03:22:41;;;;;;;;;;;0.30;99.90;;;;;;6213125;23;20366;-73
2022/01/13 03:25:07;;;;;;;;;;;0.30;99.90;;;;;;6213813;23;19907;-71
2022/01/13 03:27:36;;;;;;;;;;;0.30;99.90;;;;;;6210694;23;20342;-72
2022/01/13 03:30:05;;;;;;;;;;;0.30;99.90;;;;;;6214098;23;19907;-72
2022/01/13 03:32:30;;;;;;;;;;;0.20;99.90;;;;;;6212495;23;19904;-72
2022/01/13 03:34:56;;;;;;;;;;;0.30;99.90;;;;;;6212347;23;19958;-72
2022/01/13 03:37:22;;;;;;;;;;;0.30;99.90;;;;;;6213262;23;20239;-72
2022/01/13 03:39:49;;;;;;;;;;;0.30;99.90;;;;;;6212782;23;19912;-73
2022/01/13 03:42:14;;;;;;;;;;;0.50;99.90;;;;;;6214321;23;19899;-72
2022/01/13 03:44:40;;;;;;;;;;;0.40;99.90;;;;;;6214030;23;20248;-72
2022/01/13 03:47:05;;;;;;;;;;;0.40;99.90;;;;;;6215883;23;20320;-72
2022/01/13 03:49:32;;;;;;;;;;;0.40;99.90;;;;;;6220366;23;20367;-72
2022/01/13 03:52:02;;;;;;;;;;;0.40;99.90;;;;;;6219670;23;20367;-73
2022/01/13 03:54:31;;;;;;;;;;;0.20;99.90;;;;;;6217710;23;20268;-72
2022/01/13 03:57:05;;;;;;;;;;;0.10;99.90;;;;;;6217404;23;19900;-71
2022/01/13 03:59:38;;;;;;;;;;;0.10;99.90;;;;;;6216468;23;19899;-71
2022/01/13 04:02:10;;;;;;;;;;;0.20;99.90;;;;;;6216156;23;19904;-73
2022/01/13 04:04:54;;;;;;;;;;;0.20;99.90;;;;;;6214448;23;19907;-72
2022/01/13 04:07:22;;;;;;;;;;;0.20;99.90;;;;;;6212880;23;19931;-72
2022/01/13 04:09:47;;;;;;;;;;;0.10;99.90;;;;;;6212684;23;19907;-71
2022/01/13 04:12:14;;;;;;;;;;;0.20;99.90;;;;;;6214127;23;19899;-71
2022/01/13 04:14:47;;;;;;;;;;;0.20;99.90;;;;;;6212477;23;19903;-72
2022/01/13 04:17:14;;;;;;;;;;;0.20;99.90;;;;;;6213722;23;19900;-72
2022/01/13 04:19:40;;;;;;;;;;;0.20;99.90;;;;;;6210971;23;20251;-71
2022/01/13 04:22:07;;;;;;;;;;;0.30;99.90;;;;;;6212848;23;19900;-71
2022/01/13 04:24:32;;;;;;;;;;;0.30;99.90;;;;;;6213629;23;20190;-72
2022/01/13 04:26:58;;;;;;;;;;;0.30;99.90;;;;;;6211552;23;20265;-71
2022/01/13 04:29:35;;;;;;;;;;;0.30;99.90;;;;;;6211872;23;20247;-72
2022/01/13 04:32:01;;;;;;;;;;;0.20;99.90;;;;;;6211865;23;19900;-72
2022/01/13 04:34:26;;;;;;;;;;;0.20;99.90;;;;;;6212328;23;19979;-71
2022/01/13 04:36:54;;;;;;;;;;;0.10;99.90;;;;;;6214079;23;20201;-72
2022/01/13 04:39:20;;;;;;;;;;;0.20;99.90;;;;;;6211422;23;19969;-71
2022/01/13 04:41:47;;;;;;;;;;;0.20;99.90;;;;;;6213826;23;20269;-72
2022/01/13 04:44:15;;;;;;;;;;;0.10;99.90;;;;;;6213371;23;19907;-71
2022/01/13 04:46:41;;;;;;;;;;;0.10;99.90;;;;;;6212405;23;19943;-71
2022/01/13 04:49:07;;;;;;;;;;;0.20;99.90;;;;;;6210641;23;19907;-71
2022/01/13 04:51:34;;;;;;;;;;;0.10;99.90;;;;;;6213378;23;20213;-72
2022/01/13 04:54:00;;;;;;;;;;;0.00;99.90;;;;;;6212965;23;19907;-71
2022/01/13 04:56:29;;;;;;;;;;;-0.10;99.90;;;;;;6215436;23;19900;-72
2022/01/13 04:58:55;;;;;;;;;;;-0.20;99.90;;;;;;6214467;23;19899;-71
2022/01/13 05:01:21;;;;;;;;;;;-0.20;99.90;;;;;;6211607;23;19900;-71
2022/01/13 05:03:47;;;;;;;;;;;-0.20;99.90;;;;;;6215610;23;19900;-72
2022/01/13 05:06:13;;;;;;;;;;;-0.20;99.90;;;;;;6213968;23;19924;-71
2022/01/13 05:08:39;;;;;;;;;;;0.10;99.90;;;;;;6215285;23;19908;-70
2022/01/13 05:11:04;;;;;;;;;;;0.00;99.90;;;;;;6212736;23;19911;-72
2022/01/13 05:13:30;;;;;;;;;;;0.00;99.90;;;;;;6213632;23;19900;-71
2022/01/13 05:15:56;;;;;;;;;;;0.00;99.90;;;;;;6215479;23;19907;-70
2022/01/13 05:18:29;;;;;;;;;;;0.10;99.90;;;;;;6187458;23;19935;-72
2022/01/13 05:21:07;;;;;;;;;;;0.00;99.90;;;;;;6212616;23;19969;-72
2022/01/13 05:23:34;;;;;;;;;;;0.10;99.90;;;;;;6213851;23;20217;-72
2022/01/13 05:26:00;;;;;;;;;;;0.10;99.90;;;;;;6212134;23;19975;-71
2022/01/13 05:28:26;;;;;;;;;;;0.10;99.90;;;;;;6213813;23;20343;-71
2022/01/13 05:30:52;;;;;;;;;;;0.00;99.90;;;;;;6213483;23;19900;-72
2022/01/13 05:33:17;;;;;;;;;;;0.00;99.90;;;;;;6213832;23;19907;-71
2022/01/13 05:35:47;;;;;;;;;;;0.00;99.90;;;;;;6215194;23;19900;-71
2022/01/13 05:38:12;;;;;;;;;;;-0.10;99.90;;;;;;6214869;23;20248;-71
2022/01/13 05:40:38;;;;;;;;;;;-0.10;99.90;;;;;;6213727;23;19900;-72
2022/01/13 05:43:04;;;;;;;;;;;0.00;99.90;;;;;;6214230;23;19899;-72
2022/01/13 05:45:33;;;;;;;;;;;0.00;99.90;;;;;;6214557;23;20383;-72
2022/01/13 05:47:59;;;;;;;;;;;0.00;99.90;;;;;;6211572;23;19912;-72
2022/01/13 05:50:25;;;;;;;;;;;0.10;99.90;;;;;;6214671;23;19900;-72
2022/01/13 05:52:51;;;;;;;;;;;0.10;99.90;;;;;;6213694;23;20216;-71
2022/01/13 05:55:16;;;;;;;;;;;0.00;99.90;;;;;;6212424;23;19899;-72
2022/01/13 05:57:42;;;;;;;;;;;0.00;99.90;;;;;;6213899;23;19903;-70
2022/01/13 06:00:10;;;;;;;;;;;0.10;99.90;;;;;;6211281;23;19900;-71
2022/01/13 06:02:35;;;;;;;;;;;0.00;99.90;;;;;;6214323;23;19900;-72
2022/01/13 06:05:01;;;;;;;;;;;-0.20;99.90;;;;;;6214541;23;19954;-71
2022/01/13 06:07:26;;;;;;;;;;;-0.20;99.90;;;;;;6212346;23;19907;-71
2022/01/13 06:09:52;;;;;;;;;;;-0.20;99.90;;;;;;6214564;23;20085;-71
2022/01/13 06:12:19;;;;;;;;;;;-0.10;99.90;;;;;;6214285;23;19904;-71
2022/01/13 06:14:45;;;;;;;;;;;-0.10;99.90;;;;;;6212906;23;19957;-72
2022/01/13 06:17:11;;;;;;;;;;;-0.10;99.90;;;;;;6213049;23;19899;-71
2022/01/13 06:19:36;;;;;;;;;;;-0.10;99.90;;;;;;6213550;23;20271;-70
2022/01/13 06:22:02;;;;;;;;;;;-0.10;99.90;;;;;;6214477;23;19899;-72
2022/01/13 06:24:27;;;;;;;;;;;-0.10;99.90;;;;;;6214014;23;19923;-72
2022/01/13 06:26:53;;;;;;;;;;;-0.30;99.90;;;;;;6212662;23;20233;-73
2022/01/13 06:29:19;;;;;;;;;;;-0.30;99.90;;;;;;6214075;23;19950;-73
2022/01/13 06:31:44;;;;;;;;;;;-0.20;99.90;;;;;;6216938;23;19904;-70
2022/01/13 06:34:10;;;;;;;;;;;-0.30;99.90;;;;;;6217203;23;20301;-72
2022/01/13 06:36:36;;;;;;;;;;;-0.30;99.90;;;;;;6218649;23;19927;-72
2022/01/13 06:39:02;;;;;;;;;;;-0.30;99.90;;;;;;6218974;23;19919;-72
2022/01/13 06:41:27;;;;;;;;;;;-0.30;99.90;;;;;;6218240;23;19958;-71
2022/01/13 06:43:53;;;;;;;;;;;-0.40;99.90;;;;;;6218682;23;20269;-72
2022/01/13 06:46:18;;;;;;;;;;;-0.40;99.90;;;;;;6218551;23;20517;-73
2022/01/13 06:48:45;;;;;;;;;;;-0.40;99.90;;;;;;6217827;23;19961;-71
2022/01/13 06:51:10;;;;;;;;;;;-0.40;99.90;;;;;;6217921;23;20209;-71
2022/01/13 06:53:36;;;;;;;;;;;-0.50;99.90;;;;;;6188967;23;19900;-72
2022/01/13 06:56:02;;;;;;;;;;;-0.40;99.90;;;;;;6217303;23;19906;-72
2022/01/13 06:58:28;;;;;;;;;;;-0.50;99.90;;;;;;6214994;23;19939;-72
2022/01/13 07:00:53;;;;;;;;;;;-0.50;99.90;;;;;;6212435;23;20335;-72
2022/01/13 07:03:20;;;;;;;;;;;-0.50;99.90;;;;;;6213054;23;19974;-73
2022/01/13 07:05:46;;;;;;;;;;;-0.50;99.90;;;;;;6212733;23;20220;-71
2022/01/13 07:08:13;;;;;;;;;;;-0.60;99.90;;;;;;6211078;23;19908;-72
2022/01/13 07:10:38;;;;;;;;;;;-0.60;99.90;;;;;;6215729;23;19911;-71
2022/01/13 07:13:04;;;;;;;;;;;-0.70;99.90;;;;;;6215349;23;20359;-71
2022/01/13 07:15:31;;;;;;;;;;;-0.60;99.90;;;;;;6216061;23;19943;-72
2022/01/13 07:17:57;;;;;;;;;;;-0.60;99.90;;;;;;6215437;23;20312;-71
2022/01/13 07:20:23;;;;;;;;;;;-0.50;99.90;;;;;;6214310;23;19900;-71
2022/01/13 07:22:50;;;;;;;;;;;-0.50;99.90;;;;;;6214014;23;19900;-71
2022/01/13 07:25:16;;;;;;;;;;;-0.50;99.90;;;;;;6213939;23;19903;-72
2022/01/13 07:27:42;;;;;;;;;;;-0.50;99.90;;;;;;6212582;23;19908;-72
2022/01/13 07:30:08;;;;;;;;;;;-0.50;99.90;;;;;;6213607;23;19899;-73
2022/01/13 07:32:34;;;;;;;;;;;-0.50;99.90;;;;;;6213658;23;19900;-71
2022/01/13 07:35:00;;;;;;;;;;;-0.50;99.90;;;;;;6211432;23;19982;-72
2022/01/13 07:37:26;;;;;;;;;;;-0.60;99.90;;;;;;6213565;23;19899;-71
2022/01/13 07:39:52;;;;;;;;;;;-0.40;99.90;;;;;;6211789;23;20248;-71
2022/01/13 07:42:17;;;;;;;;;;;-0.50;99.90;;;;;;6212780;23;19900;-72
2022/01/13 07:44:43;;;;;;;;;;;-0.60;99.90;;;;;;6213164;23;19923;-71
2022/01/13 07:47:09;;;;;;;;;;;-0.60;99.90;;;;;;6211770;23;19912;-71
2022/01/13 07:49:37;;;;;;;;;;;-0.60;99.90;;;;;;6212009;23;20438;-72
2022/01/13 07:52:03;;;;;;;;;;;-0.60;99.90;;;;;;6210214;23;19991;-71
2022/01/13 07:54:31;;;;;;;;;;;-0.50;99.90;;;;;;6210932;23;19904;-71
2022/01/13 07:56:57;;;;;;;;;;;-0.50;99.90;;;;;;6213844;23;19904;-72
2022/01/13 07:59:28;;;;;;;;;;;-0.50;99.90;;;;;;6210925;23;19911;-73
2022/01/13 08:01:54;;;;;;;;;;;-0.50;99.90;;;;;;6213419;23;20247;-73
2022/01/13 08:04:21;;;;;;;;;;;-0.50;99.90;;;;;;6213187;23;19900;-72
2022/01/13 08:06:47;;;;;;;;;;;-0.50;99.90;;;;;;6211726;23;19911;-73
2022/01/13 08:09:12;;;;;;;;;;;-0.50;99.90;;;;;;6212772;23;19943;-72
2022/01/13 08:11:38;;;;;;;;;;;-0.50;99.90;;;;;;6213729;23;19987;-72
2022/01/13 08:14:04;;;;;;;;;;;-0.30;99.90;;;;;;6212001;23;19899;-72
2022/01/13 08:16:33;;;;;;;;;;;-0.30;99.90;;;;;;6213128;23;19908;-72
2022/01/13 08:21:43;;;;;;;;;;;-0.30;99.90;;;;;;6210833;23;20038;-71
2022/01/13 08:24:09;;;;;;;;;;;-0.40;99.90;;;;;;6211763;23;19943;-71
2022/01/13 08:26:34;;;;;;;;;;;-0.50;99.90;;;;;;6211520;23;19900;-73
2022/01/13 08:29:00;;;;;;;;;;;-0.60;99.90;;;;;;6213519;23;19900;-72
2022/01/13 08:31:25;;;;;;;;;;;-0.50;99.90;;;;;;6214575;23;20240;-72
2022/01/13 08:33:51;;;;;;;;;;;-0.40;99.90;;;;;;6213088;23;19900;-72
2022/01/13 08:36:17;;;;;;;;;;;-0.40;99.90;;;;;;6214382;23;19900;-73
2022/01/13 08:38:42;;;;;;;;;;;-0.40;99.90;;;;;;6214022;23;20224;-73
2022/01/13 08:41:08;;;;;;;;;;;-0.40;99.90;;;;;;6213057;23;19900;-72
2022/01/13 08:43:34;;;;;;;;;;;-0.40;99.90;;;;;;6214584;23;20297;-73
2022/01/13 08:46:00;;;;;;;;;;;-0.50;99.90;;;;;;6213843;23;19900;-71
2022/01/13 08:48:26;;;;;;;;;;;-0.50;99.90;;;;;;6213862;23;19914;-73
2022/01/13 08:50:52;;;;;;;;;;;-0.50;99.90;;;;;;6213361;23;20213;-72
2022/01/13 08:53:18;;;;;;;;;;;-0.50;99.90;;;;;;6211546;23;19906;-71
2022/01/13 08:55:44;;;;;;;;;;;-0.40;99.90;;;;;;6213313;23;19900;-71
2022/01/13 08:58:09;;;;;;;;;;;-0.40;99.90;;;;;;6213470;23;19973;-72
2022/01/13 09:00:37;;;;;;;;;;;-0.50;99.90;;;;;;6214220;23;19919;-73
2022/01/13 09:03:06;;;;;;;;;;;-0.40;99.90;;;;;;6216616;23;19904;-73
2022/01/13 09:05:33;;;;;;;;;;;-0.30;99.90;;;;;;6221786;23;20272;-72
2022/01/13 09:07:58;;;;;;;;;;;-0.20;99.90;;;;;;6214286;23;20391;-73
2022/01/13 09:10:24;;;;;;;;;;;-0.30;99.90;;;;;;6215504;23;19900;-72
2022/01/13 09:12:49;;;;;;;;;;;-0.20;99.90;;;;;;6213928;23;19919;-73
2022/01/13 09:15:25;;;;;;;;;;;-0.20;99.90;;;;;;6216043;23;19900;-71
2022/01/13 09:17:52;;;;;;;;;;;-0.30;99.90;;;;;;6216392;23;20209;-72
2022/01/13 09:20:18;;;;;;;;;;;-0.30;99.90;;;;;;6216547;23;19977;-72
2022/01/13 09:22:44;;;;;;;;;;;-0.20;99.90;;;;;;6216394;23;19904;-72
2022/01/13 09:25:11;;;;;;;;;;;-0.20;99.90;;;;;;6216749;23;19900;-72
2022/01/13 09:27:40;;;;;;;;;;;0.00;99.90;;;;;;6214427;23;20239;-74
2022/01/13 09:30:08;;;;;;;;;;;0.00;99.90;;;;;;6214523;23;19903;-72
2022/01/13 09:32:35;;;;;;;;;;;-0.10;99.90;;;;;;6215306;23;20239;-72
2022/01/13 09:35:01;;;;;;;;;;;-0.10;99.90;;;;;;6213802;23;20304;-73
2022/01/13 09:37:26;;;;;;;;;;;0.00;99.90;;;;;;6213745;23;19922;-73
2022/01/13 09:39:52;;;;;;;;;;;0.10;99.90;;;;;;6210511;23;19920;-73
2022/01/13 09:42:18;;;;;;;;;;;0.10;99.90;;;;;;6215242;23;19899;-73
2022/01/13 09:44:46;;;;;;;;;;;0.30;99.90;;;;;;6215618;23;19953;-73
2022/01/13 09:47:12;;;;;;;;;;;0.30;99.90;;;;;;6212426;23;19912;-72
2022/01/13 09:49:38;;;;;;;;;;;0.20;99.90;;;;;;6215530;23;19900;-73
2022/01/13 09:52:04;;;;;;;;;;;0.40;99.90;;;;;;6214560;23;19965;-72
2022/01/13 09:54:29;;;;;;;;;;;0.40;99.90;;;;;;6213729;23;19931;-73
2022/01/13 09:56:55;;;;;;;;;;;0.40;99.90;;;;;;6214716;23;19907;-73
2022/01/13 09:59:20;;;;;;;;;;;0.40;99.90;;;;;;6214461;23;19930;-72
2022/01/13 10:01:46;;;;;;;;;;;0.40;99.90;;;;;;6213493;23;20026;-72
2022/01/13 10:04:12;;;;;;;;;;;0.40;99.90;;;;;;6215197;23;19908;-74
2022/01/13 10:06:42;;;;;;;;;;;0.60;99.90;;;;;;6213551;23;19975;-73
2022/01/13 10:09:07;;;;;;;;;;;0.60;99.90;;;;;;6214863;23;19979;-74
2022/01/13 10:11:39;;;;;;;;;;;0.60;99.90;;;;;;6212935;23;19934;-72
2022/01/13 10:14:06;;;;;;;;;;;0.80;99.90;;;;;;6211147;23;19909;-73
2022/01/13 10:16:32;;;;;;;;;;;1.00;99.90;;;;;;6214040;23;19900;-74
2022/01/13 10:18:57;;;;;;;;;;;0.90;99.90;;;;;;6214397;23;19926;-73
2022/01/13 10:21:23;;;;;;;;;;;0.90;99.90;;;;;;6211461;23;20312;-73
2022/01/13 10:24:12;;;;;;;;;;;0.90;99.90;;;;;;6214493;23;19904;-72
2022/01/13 10:26:39;;;;;;;;;;;1.00;99.90;;;;;;6213775;23;19904;-73
2022/01/13 10:29:07;;;;;;;;;;;1.00;99.90;;;;;;6213105;23;19906;-75
2022/01/13 10:31:47;;;;;;;;;;;1.20;99.90;;;;;;6215016;23;19983;-74
2022/01/13 10:34:17;;;;;;;;;;;1.20;99.90;;;;;;6213676;23;20034;-73
2022/01/13 10:37:01;;;;;;;;;;;1.50;99.90;;;;;;6215455;23;19902;-72
2022/01/13 10:39:43;;;;;;;;;;;1.60;99.90;;;;;;6212003;23;19912;-73
2022/01/13 10:42:21;;;;;;;;;;;1.80;99.90;;;;;;6214805;23;19907;-72
2022/01/13 10:44:52;;;;;;;;;;;1.80;99.90;;;;;;6214944;23;19906;-73
2022/01/13 10:47:18;;;;;;;;;;;1.80;99.90;;;;;;6214223;23;19962;-73
2022/01/13 10:49:47;;;;;;;;;;;2.00;99.90;;;;;;6215076;23;19899;-73
2022/01/13 10:52:24;;;;;;;;;;;2.10;99.90;;;;;;6214506;23;20183;-73
2022/01/13 10:54:58;;;;;;;;;;;2.30;99.90;;;;;;6211678;23;19907;-73
2022/01/13 10:57:26;;;;;;;;;;;2.40;99.90;;;;;;6212824;23;19986;-73
2022/01/13 10:59:51;;;;;;;;;;;2.50;99.90;;;;;;6212293;23;20248;-73
2022/01/13 11:02:24;;;;;;;;;;;2.50;99.90;;;;;;6214552;23;19904;-73
2022/01/13 11:04:53;;;;;;;;;;;2.70;99.90;;;;;;6213222;23;19906;-74
2022/01/13 11:07:20;;;;;;;;;;;2.80;99.90;;;;;;6213814;23;19914;-73
2022/01/13 11:09:54;;;;;;;;;;;2.90;99.90;;;;;;6215114;23;19907;-72
2022/01/13 11:12:35;;;;;;;;;;;3.00;99.90;;;;;;6215173;23;19907;-72
2022/01/13 11:15:05;;;;;;;;;;;3.10;99.90;;;;;;6212768;23;19911;-73
2022/01/13 11:17:33;;;;;;;;;;;3.20;99.90;;;;;;6213807;23;19900;-71
2022/01/13 11:19:59;;;;;;;;;;;3.40;99.90;;;;;;6212560;23;19900;-72
2022/01/13 11:22:25;;;;;;;;;;;3.60;99.90;;;;;;6213293;23;20335;-72
2022/01/13 11:24:50;;;;;;;;;;;3.50;99.90;;;;;;6214318;23;19908;-72
2022/01/13 11:27:20;;;;;;;;;;;3.60;99.90;;;;;;6214785;23;19978;-72
2022/01/13 11:29:46;;;;;;;;;;;3.70;99.90;;;;;;6215726;23;19924;-72
2022/01/13 11:32:14;;;;;;;;;;;3.70;99.90;;;;;;6214189;23;19900;-72
2022/01/13 11:34:40;;;;;;;;;;;3.80;99.90;;;;;;6213284;23;19900;-73
2022/01/13 11:37:07;;;;;;;;;;;3.80;99.90;;;;;;6214292;23;19900;-73
2022/01/13 11:39:37;;;;;;;;;;;3.90;99.90;;;;;;6213215;23;19912;-72
2022/01/13 11:42:04;;;;;;;;;;;4.10;99.90;;;;;;6213960;23;19908;-72
2022/01/13 11:44:29;;;;;;;;;;;4.20;99.90;;;;;;6214149;23;19907;-72
2022/01/13 11:46:55;;;;;;;;;;;4.30;99.90;;;;;;6210592;23;19912;-72
2022/01/13 11:49:26;;;;;;;;;;;4.40;99.90;;;;;;6213952;23;20244;-72
2022/01/13 11:51:58;;;;;;;;;;;4.50;99.90;;;;;;6214454;23;19907;-72
2022/01/13 11:54:25;;;;;;;;;;;4.60;99.90;;;;;;6213727;23;19900;-72
2022/01/13 11:57:10;;;;;;;;;;;4.70;99.90;;;;;;6215704;23;19995;-71
2022/01/13 11:59:36;;;;;;;;;;;4.90;99.90;;;;;;6215379;23;19900;-73
2022/01/13 12:02:20;;;;;;;;;;;4.90;99.90;;;;;;6218729;23;20244;-72
2022/01/13 12:05:04;;;;;;;;;;;4.90;99.90;;;;;;6218072;23;20378;-71
2022/01/13 12:07:37;;;;;;;;;;;5.00;99.90;;;;;;6216767;23;19947;-73
2022/01/13 12:10:06;;;;;;;;;;;5.30;99.90;;;;;;6218294;23;19950;-72
2022/01/13 12:12:33;;;;;;;;;;;5.50;99.90;;;;;;6218657;23;19923;-71
2022/01/13 12:15:18;;;;;;;;;;;5.60;99.90;;;;;;6213391;23;20270;-73
2022/01/13 12:17:47;;;;;;;;;;;5.70;99.90;;;;;;6217784;23;19907;-73
2022/01/13 12:20:52;;;;;;;;;;;5.90;99.90;;;;;;6216074;23;20342;-72
2022/01/13 12:23:41;;;;;;;;;;;6.10;99.90;;;;;;6218961;23;19938;-72
2022/01/13 12:26:46;;;;;;;;;;;6.20;99.90;;;;;;6206674;23;19903;-72
2022/01/13 12:29:14;;;;;;;;;;;6.30;99.90;;;;;;6130815;23;19936;-72
2022/01/13 12:31:49;;;;;;;;;;;6.30;99.90;;;;;;6129764;23;19915;-73
2022/01/13 12:34:22;;;;;;;;;;;6.40;99.90;;;;;;6178849;23;19927;-72
2022/01/13 12:36:48;;;;;;;;;;;6.60;99.90;;;;;;6221761;23;19900;-72
2022/01/13 12:39:14;;;;;;;;;;;6.60;99.90;;;;;;6221223;23;19962;-73
2022/01/13 12:42:03;;;;;;;;;;;6.80;99.90;;;;;;6219774;23;19966;-72
2022/01/13 12:47:15;;;;;;;;;;;6.90;99.90;;;;;;6219334;23;20061;-73
2022/01/13 12:49:41;;;;;;;;;;;7.00;99.90;;;;;;6221182;23;19950;-72
2022/01/13 12:52:07;;;;;;;;;;;7.10;99.90;;;;;;6221324;23;19900;-71
2022/01/13 12:54:33;;;;;;;;;;;7.20;99.90;;;;;;6218065;23;19907;-71
2022/01/13 12:57:06;;;;;;;;;;;7.10;99.90;;;;;;6216365;23;20343;-72
2022/01/13 12:59:32;;;;;;;;;;;7.30;99.90;;;;;;6216576;23;20299;-72
2022/01/13 13:01:58;;;;;;;;;;;7.30;99.90;;;;;;6217478;23;19900;-72
2022/01/13 13:04:30;;;;;;;;;;;7.40;99.90;;;;;;6217234;23;19906;-72
2022/01/13 13:06:56;;;;;;;;;;;7.30;99.90;;;;;;6215404;23;19900;-71
2022/01/13 13:09:23;;;;;;;;;;;7.30;99.90;;;;;;6215765;23;19926;-71
2022/01/13 13:11:50;;;;;;;;;;;7.40;99.90;;;;;;6214564;23;19900;-71
2022/01/13 13:17:28;;;;;;;;;;;7.70;99.90;;;;;;6215649;23;19906;-71
2022/01/13 13:19:53;;;;;;;;;;;7.80;99.90;;;;;;6213018;23;19950;-70
2022/01/13 13:22:19;;;;;;;;;;;7.80;99.90;;;;;;6188807;23;19911;-72
2022/01/13 13:24:44;;;;;;;;;;;7.90;99.90;;;;;;6214981;23;19906;-71
2022/01/13 13:27:10;;;;;;;;;;;7.90;99.90;;;;;;6213972;23;19907;-70
2022/01/13 13:29:36;;;;;;;;;;;7.90;99.90;;;;;;6215072;23;20327;-72
2022/01/13 13:32:02;;;;;;;;;;;8.00;99.90;;;;;;6215355;23;19948;-71
2022/01/13 13:34:29;;;;;;;;;;;8.00;99.90;;;;;;6213965;23;20232;-73
2022/01/13 13:36:54;;;;;;;;;;;8.00;99.90;;;;;;6213509;23;20324;-71
2022/01/13 13:39:23;;;;;;;;;;;8.10;99.90;;;;;;6214251;23;19974;-74
2022/01/13 13:41:53;;;;;;;;;;;8.20;99.90;;;;;;6215474;23;19939;-72
2022/01/13 13:44:21;;;;;;;;;;;8.30;99.90;;;;;;6211612;23;19916;-70
2022/01/13 13:46:51;;;;;;;;;;;8.40;99.90;;;;;;6212579;23;20313;-72
2022/01/13 13:49:18;;;;;;;;;;;8.40;99.90;;;;;;6214895;23;19911;-71
2022/01/13 13:51:50;;;;;;;;;;;8.30;99.90;;;;;;6214247;23;20384;-72
2022/01/13 13:54:19;;;;;;;;;;;8.30;99.90;;;;;;6214195;23;19983;-71
2022/01/13 13:56:46;;;;;;;;;;;8.30;99.90;;;;;;6214394;23;19907;-73
2022/01/13 13:59:22;;;;;;;;;;;8.50;99.90;;;;;;6215194;23;19903;-71
2022/01/13 14:01:52;;;;;;;;;;;8.50;99.90;;;;;;6214672;23;20587;-71
2022/01/13 14:04:33;;;;;;;;;;;8.50;99.90;;;;;;6214742;23;19903;-72
2022/01/13 14:06:59;;;;;;;;;;;8.50;99.90;;;;;;6212177;23;19899;-72
2022/01/13 14:09:40;;;;;;;;;;;8.50;99.90;;;;;;6213633;23;20347;-72
2022/01/13 14:12:07;;;;;;;;;;;8.60;99.90;;;;;;6214466;23;19912;-71
2022/01/13 14:14:40;;;;;;;;;;;8.60;99.90;;;;;;6213332;23;19904;-72
2022/01/13 14:17:06;;;;;;;;;;;8.60;99.90;;;;;;6214487;23;20356;-72
2022/01/13 14:19:31;;;;;;;;;;;8.70;99.90;;;;;;6211324;23;20026;-72
2022/01/13 14:21:57;;;;;;;;;;;8.80;99.90;;;;;;6212975;23;19931;-72
2022/01/13 14:24:36;;;;;;;;;;;8.80;99.90;;;;;;6214306;23;20054;-71
2022/01/13 14:27:05;;;;;;;;;;;8.90;99.90;;;;;;6212961;23;19959;-71
2022/01/13 14:29:31;;;;;;;;;;;8.90;99.90;;;;;;6213955;23;19927;-71
2022/01/13 14:32:12;;;;;;;;;;;8.70;99.90;;;;;;6214386;23;19954;-71
2022/01/13 14:34:44;;;;;;;;;;;8.70;99.90;;;;;;6213622;23;19987;-70
2022/01/13 14:37:10;;;;;;;;;;;8.60;99.90;;;;;;6214532;23;19900;-72
2022/01/13 14:39:36;;;;;;;;;;;8.60;99.90;;;;;;6214368;23;19987;-71
2022/01/13 14:42:01;;;;;;;;;;;8.70;99.90;;;;;;6214720;23;19911;-72
2022/01/13 14:44:27;;;;;;;;;;;8.70;99.90;;;;;;6215309;23;20232;-72
2022/01/13 14:47:03;;;;;;;;;;;8.80;99.90;;;;;;6213339;23;19922;-72
2022/01/13 14:49:31;;;;;;;;;;;8.80;99.90;;;;;;6215042;23;19926;-72
2022/01/13 14:51:58;;;;;;;;;;;8.90;99.90;;;;;;6214522;23;19912;-71
2022/01/13 14:54:24;;;;;;;;;;;8.90;99.90;;;;;;6213440;23;19900;-71